createdAt,value
2023-04-15T00:00:59.359Z,28.04
2023-04-15T00:03:28.022Z,28.08
2023-04-15T00:05:56.526Z,28.11
2023-04-15T00:08:24.906Z,28.16
2023-04-15T00:10:53.270Z,28.21
2023-04-15T00:13:23.429Z,28.27
2023-04-15T00:15:51.770Z,28.33
2023-04-15T00:18:20.122Z,28.38
2023-04-15T00:20:48.751Z,28.42
2023-04-15T00:23:17.200Z,28.50
2023-04-15T00:25:45.833Z,28.56
2023-04-15T00:28:14.717Z,28.61
2023-04-15T00:30:43.259Z,28.67
2023-04-15T00:33:12.013Z,28.73
2023-04-15T00:35:40.509Z,28.79
2023-04-15T00:38:12.498Z,28.85
2023-04-15T00:40:40.932Z,28.89
2023-04-15T00:43:09.356Z,28.95
2023-04-15T00:45:38.336Z,29.01
2023-04-15T00:48:07.284Z,29.07
2023-04-15T00:50:35.760Z,29.12
2023-04-15T00:53:04.164Z,29.18
2023-04-15T00:55:32.768Z,29.23
2023-04-15T00:58:01.163Z,29.30
2023-04-15T01:00:30.014Z,29.36
2023-04-15T01:02:59.089Z,29.41
2023-04-15T01:05:28.041Z,29.48
2023-04-15T01:07:57.289Z,29.56
2023-04-15T01:10:25.765Z,29.62
2023-04-15T01:12:54.279Z,29.69
2023-04-15T01:15:22.862Z,29.75
2023-04-15T01:17:51.751Z,29.80
2023-04-15T01:20:21.284Z,29.87
2023-04-15T01:22:50.647Z,29.95
2023-04-15T01:25:34.319Z,30.00
2023-04-15T01:28:03.252Z,30.07
2023-04-15T01:30:35.789Z,30.14
2023-04-15T01:33:04.531Z,30.23
2023-04-15T01:35:33.214Z,30.31
2023-04-15T01:38:09.399Z,30.37
2023-04-15T01:40:38.059Z,30.44
2023-04-15T01:43:06.431Z,30.52
2023-04-15T01:45:34.821Z,30.58
2023-04-15T01:48:03.191Z,30.64
2023-04-15T01:50:32.035Z,30.70
2023-04-15T01:53:00.419Z,30.78
2023-04-15T01:55:28.791Z,30.86
2023-04-15T01:57:57.174Z,30.93
2023-04-15T02:00:25.890Z,31.00
2023-04-15T02:02:54.905Z,31.07
2023-04-15T02:05:23.276Z,31.16
2023-04-15T02:07:51.652Z,31.24
2023-04-15T02:10:20.089Z,31.33
2023-04-15T02:12:48.568Z,31.40
2023-04-15T02:15:17.373Z,31.45
2023-04-15T02:17:46.955Z,31.49
2023-04-15T02:20:16.296Z,31.55
2023-04-15T02:22:44.880Z,31.59
2023-04-15T02:25:13.206Z,31.64
2023-04-15T02:27:41.615Z,31.69
2023-04-15T02:30:10.312Z,31.75
2023-04-15T02:32:39.144Z,31.82
2023-04-15T02:35:09.032Z,31.91
2023-04-15T02:37:44.349Z,31.98
2023-04-15T02:40:14.066Z,32.05
2023-04-15T02:42:43.774Z,32.12
2023-04-15T02:45:13.613Z,32.20
2023-04-15T02:47:42.510Z,32.28
2023-04-15T02:50:13.496Z,32.37
2023-04-15T02:52:43.217Z,32.44
2023-04-15T02:55:12.044Z,32.52
2023-04-15T02:57:41.672Z,32.60
2023-04-15T03:00:12.572Z,32.67
2023-04-15T03:02:42.002Z,32.76
2023-04-15T03:05:14.865Z,32.82
2023-04-15T03:07:43.253Z,32.90
2023-04-15T03:10:12.492Z,32.98
2023-04-15T03:12:41.692Z,33.07
2023-04-15T03:15:11.041Z,33.14
2023-04-15T03:17:39.673Z,33.21
2023-04-15T03:20:08.830Z,33.27
2023-04-15T03:22:37.278Z,33.35
2023-04-15T03:25:06.240Z,33.43
2023-04-15T03:27:34.684Z,33.49
2023-04-15T03:30:03.045Z,33.57
2023-04-15T03:32:31.787Z,33.64
2023-04-15T03:35:00.171Z,33.70
2023-04-15T03:37:28.601Z,33.75
2023-04-15T03:39:56.945Z,33.81
2023-04-15T03:42:25.304Z,33.86
2023-04-15T03:44:53.829Z,33.94
2023-04-15T03:47:22.523Z,34.01
2023-04-15T03:49:50.984Z,34.08
2023-04-15T03:52:19.356Z,34.17
2023-04-15T03:54:47.678Z,34.24
2023-04-15T03:57:16.090Z,34.31
2023-04-15T03:59:44.822Z,34.37
2023-04-15T04:02:13.236Z,34.44
2023-04-15T04:04:41.682Z,34.47
2023-04-15T04:07:10.097Z,34.54
2023-04-15T04:09:40.134Z,34.62
2023-04-15T04:12:08.522Z,34.72
2023-04-15T04:14:36.972Z,34.81
2023-04-15T04:17:05.442Z,34.85
2023-04-15T04:19:33.918Z,34.89
2023-04-15T04:22:03.255Z,34.96
2023-04-15T04:24:31.822Z,35.04
2023-04-15T04:27:00.197Z,35.11
2023-04-15T04:29:28.545Z,35.21
2023-04-15T04:31:56.918Z,35.28
2023-04-15T04:34:25.409Z,35.32
2023-04-15T04:36:53.760Z,35.39
2023-04-15T04:39:22.085Z,35.45
2023-04-15T04:41:51.111Z,35.53
2023-04-15T04:44:19.694Z,35.61
2023-04-15T04:46:48.095Z,35.68
2023-04-15T04:49:16.501Z,35.76
2023-04-15T04:51:44.949Z,35.82
2023-04-15T04:54:13.374Z,35.90
2023-04-15T04:56:41.975Z,35.97
2023-04-15T04:59:10.421Z,36.03
2023-04-15T05:01:38.834Z,36.10
2023-04-15T05:04:08.612Z,36.17
2023-04-15T05:06:37.784Z,36.22
2023-04-15T05:09:06.109Z,36.27
2023-04-15T05:11:34.832Z,36.33
2023-04-15T05:14:03.295Z,36.39
2023-04-15T05:16:31.850Z,36.43
2023-04-15T05:19:00.567Z,36.48
2023-04-15T05:21:29.223Z,36.56
2023-04-15T05:23:57.615Z,36.59
2023-04-15T05:26:34.794Z,36.65
2023-04-15T05:29:03.242Z,36.70
2023-04-15T05:31:31.699Z,36.75
2023-04-15T05:34:00.167Z,36.80
2023-04-15T05:36:29.937Z,36.88
2023-04-15T05:38:58.264Z,36.93
2023-04-15T05:41:26.648Z,36.99
2023-04-15T05:43:54.983Z,37.04
2023-04-15T05:46:23.792Z,37.07
2023-04-15T05:48:54.240Z,37.09
2023-04-15T05:51:23.224Z,37.12
2023-04-15T05:53:51.551Z,37.17
2023-04-15T05:56:21.303Z,37.23
2023-04-15T05:58:50.512Z,37.26
2023-04-15T06:01:19.878Z,37.30
2023-04-15T06:03:48.349Z,37.34
2023-04-15T06:06:16.734Z,37.39
2023-04-15T06:08:45.101Z,37.44
2023-04-15T06:11:13.437Z,37.48
2023-04-15T06:13:41.916Z,37.53
2023-04-15T06:16:10.318Z,37.56
2023-04-15T06:18:38.669Z,37.58
2023-04-15T06:21:07.132Z,37.61
2023-04-15T06:23:38.780Z,37.65
2023-04-15T06:26:07.261Z,37.68
2023-04-15T06:28:35.720Z,37.69
2023-04-15T06:31:04.320Z,37.73
2023-04-15T06:33:33.405Z,37.75
2023-04-15T06:36:01.857Z,37.76
2023-04-15T06:38:30.198Z,37.79
2023-04-15T06:40:58.600Z,37.82
2023-04-15T06:43:26.995Z,37.82
2023-04-15T06:45:55.441Z,37.84
2023-04-15T06:48:24.231Z,37.87
2023-04-15T06:50:53.778Z,37.87
2023-04-15T06:53:23.046Z,37.88
2023-04-15T06:55:51.400Z,37.90
2023-04-15T06:58:19.742Z,37.93
2023-04-15T07:00:48.897Z,37.92
2023-04-15T07:03:17.463Z,37.93
2023-04-15T07:05:45.865Z,37.95
2023-04-15T07:08:15.019Z,37.96
2023-04-15T07:10:43.401Z,38.00
2023-04-15T07:13:12.338Z,38.02
2023-04-15T07:15:40.737Z,38.02
2023-04-15T07:18:09.091Z,38.02
2023-04-15T07:20:37.675Z,38.03
2023-04-15T07:23:06.002Z,38.02
2023-04-15T07:25:34.348Z,38.00
2023-04-15T07:28:03.495Z,38.02
2023-04-15T07:30:31.887Z,38.03
2023-04-15T07:33:00.609Z,38.02
2023-04-15T07:35:30.271Z,38.03
2023-04-15T07:37:58.733Z,38.02
2023-04-15T07:40:27.556Z,38.03
2023-04-15T07:42:58.198Z,38.03
2023-04-15T07:45:26.552Z,37.99
2023-04-15T07:47:54.982Z,37.95
2023-04-15T07:50:24.222Z,37.93
2023-04-15T07:52:53.377Z,37.93
2023-04-15T07:55:23.854Z,37.91
2023-04-15T07:57:52.657Z,37.89
2023-04-15T08:00:21.145Z,37.86
2023-04-15T08:02:50.812Z,37.84
2023-04-15T08:05:19.311Z,37.80
2023-04-15T08:07:47.850Z,37.78
2023-04-15T08:10:16.293Z,37.76
2023-04-15T08:12:44.754Z,37.69
2023-04-15T08:15:14.083Z,37.59
2023-04-15T08:17:42.604Z,37.43
2023-04-15T08:20:11.287Z,37.28
2023-04-15T08:22:39.742Z,37.12
2023-04-15T08:25:08.473Z,36.96
2023-04-15T08:27:37.224Z,36.81
2023-04-15T08:30:06.090Z,36.63
2023-04-15T08:32:34.501Z,36.49
2023-04-15T08:35:03.080Z,36.37
2023-04-15T08:37:31.492Z,36.27
2023-04-15T08:39:59.827Z,36.17
2023-04-15T08:42:50.997Z,36.10
2023-04-15T08:45:20.312Z,36.03
2023-04-15T08:47:53.844Z,35.95
2023-04-15T08:50:23.776Z,35.89
2023-04-15T08:52:56.423Z,35.82
2023-04-15T08:55:26.419Z,35.74
2023-04-15T08:57:54.784Z,35.66
2023-04-15T09:00:24.406Z,35.57
2023-04-15T09:02:53.555Z,35.51
2023-04-15T09:05:22.571Z,35.44
2023-04-15T09:07:52.841Z,35.34
2023-04-15T09:10:21.221Z,35.22
2023-04-15T09:12:49.581Z,35.12
2023-04-15T09:15:18.617Z,35.01
2023-04-15T09:17:47.439Z,34.95
2023-04-15T09:20:19.797Z,34.90
2023-04-15T09:22:50.086Z,34.85
2023-04-15T09:25:35.073Z,34.80
2023-04-15T09:28:04.231Z,34.71
2023-04-15T09:30:32.699Z,34.65
2023-04-15T09:33:05.841Z,34.59
2023-04-15T09:35:34.293Z,34.55
2023-04-15T09:38:08.643Z,34.52
2023-04-15T09:40:39.251Z,34.50
2023-04-15T09:43:08.599Z,34.49
2023-04-15T09:45:38.075Z,34.47
2023-04-15T09:48:32.112Z,34.44
2023-04-15T09:51:01.599Z,34.42
2023-04-15T09:53:31.812Z,34.38
2023-04-15T09:56:04.582Z,34.36
2023-04-15T09:58:35.928Z,34.31
2023-04-15T10:01:08.686Z,34.27
2023-04-15T10:03:38.535Z,34.21
2023-04-15T10:06:07.000Z,34.16
2023-04-15T10:08:36.241Z,34.13
2023-04-15T10:11:05.727Z,34.12
2023-04-15T10:13:36.041Z,34.08
2023-04-15T10:16:13.017Z,34.03
2023-04-15T10:18:45.940Z,33.98
2023-04-15T10:21:17.430Z,33.96
2023-04-15T10:23:49.226Z,33.93
2023-04-15T10:26:18.680Z,33.91
2023-04-15T10:28:50.857Z,33.91
2023-04-15T10:31:20.982Z,33.90
2023-04-15T10:33:51.081Z,33.89
2023-04-15T10:36:21.329Z,33.87
2023-04-15T10:38:50.135Z,33.85
2023-04-15T10:41:20.184Z,33.84
2023-04-15T10:43:54.613Z,33.80
2023-04-15T10:46:48.357Z,33.75
2023-04-15T10:49:19.238Z,33.71
2023-04-15T10:51:52.700Z,33.68
2023-04-15T10:54:27.064Z,33.63
2023-04-15T10:57:07.505Z,33.60
2023-04-15T11:00:00.208Z,33.57
2023-04-15T11:02:48.966Z,33.55
2023-04-15T11:05:18.773Z,33.52
2023-04-15T11:07:57.942Z,33.50
2023-04-15T11:10:32.332Z,33.47
2023-04-15T11:13:05.392Z,33.44
2023-04-15T11:15:48.244Z,33.39
2023-04-15T11:18:29.359Z,33.37
2023-04-15T11:21:03.239Z,33.34
2023-04-15T11:23:37.661Z,33.32
2023-04-15T11:26:10.568Z,33.31
2023-04-15T11:28:41.659Z,33.27
2023-04-15T11:31:12.800Z,33.23
2023-04-15T11:34:01.342Z,33.19
2023-04-15T11:36:32.881Z,33.16
2023-04-15T11:39:01.777Z,33.12
2023-04-15T11:41:30.123Z,33.09
2023-04-15T11:43:58.524Z,33.08
2023-04-15T11:46:33.139Z,33.07
2023-04-15T11:49:01.754Z,33.05
2023-04-15T11:51:35.239Z,33.05
2023-04-15T11:54:04.880Z,33.10
2023-04-15T11:56:33.412Z,33.12
2023-04-15T11:59:02.264Z,33.13
2023-04-15T12:01:37.419Z,33.14
2023-04-15T12:04:14.417Z,33.11
2023-04-15T12:06:43.132Z,33.13
2023-04-15T12:09:16.414Z,33.11
2023-04-15T12:11:49.965Z,33.10
2023-04-15T12:14:27.522Z,33.06
2023-04-15T12:16:59.637Z,33.02
2023-04-15T12:19:35.998Z,32.99
2023-04-15T12:22:11.805Z,32.96
2023-04-15T12:24:41.395Z,32.92
2023-04-15T12:27:14.404Z,32.88
2023-04-15T12:29:46.897Z,32.84
2023-04-15T12:32:17.216Z,32.80
2023-04-15T12:34:54.129Z,32.76
2023-04-15T12:37:23.096Z,32.73
2023-04-15T12:39:52.004Z,32.70
2023-04-15T12:42:20.725Z,32.67
2023-04-15T12:44:49.297Z,32.65
2023-04-15T12:47:17.829Z,32.63
2023-04-15T12:49:46.613Z,32.59
2023-04-15T12:52:15.004Z,32.56
2023-04-15T12:54:43.375Z,32.53
2023-04-15T12:57:11.735Z,32.54
2023-04-15T12:59:40.588Z,32.51
2023-04-15T13:02:09.851Z,32.50
2023-04-15T13:04:38.418Z,32.50
2023-04-15T13:07:07.227Z,32.47
2023-04-15T13:09:36.159Z,32.45
2023-04-15T13:12:06.373Z,32.39
2023-04-15T13:14:34.750Z,32.34
2023-04-15T13:17:05.131Z,32.29
2023-04-15T13:19:33.764Z,32.23
2023-04-15T13:22:02.146Z,32.19
2023-04-15T13:24:30.555Z,32.18
2023-04-15T13:27:00.159Z,32.15
2023-04-15T13:29:28.598Z,32.10
2023-04-15T13:31:57.900Z,32.07
2023-04-15T13:34:26.342Z,32.03
2023-04-15T13:36:54.706Z,32.02
2023-04-15T13:39:23.052Z,31.98
2023-04-15T13:41:51.392Z,31.93
2023-04-15T13:44:21.922Z,31.89
2023-04-15T13:46:50.645Z,31.82
2023-04-15T13:49:18.976Z,31.77
2023-04-15T13:51:47.311Z,31.72
2023-04-15T13:54:15.703Z,31.70
2023-04-15T13:56:44.169Z,31.65
2023-04-15T13:59:12.549Z,31.62
2023-04-15T14:01:42.328Z,31.60
2023-04-15T14:04:11.127Z,31.59
2023-04-15T14:06:39.714Z,31.57
2023-04-15T14:09:08.264Z,31.57
2023-04-15T14:11:37.696Z,31.57
2023-04-15T14:14:06.873Z,31.54
2023-04-15T14:16:35.794Z,31.52
2023-04-15T14:19:04.743Z,31.53
2023-04-15T14:21:33.573Z,31.50
2023-04-15T14:24:01.955Z,31.50
2023-04-15T14:26:30.338Z,31.47
2023-04-15T14:28:58.686Z,31.44
2023-04-15T14:31:27.140Z,31.40
2023-04-15T14:33:55.569Z,31.38
2023-04-15T14:36:24.317Z,31.38
2023-04-15T14:38:52.742Z,31.36
2023-04-15T14:41:21.082Z,31.35
2023-04-15T14:43:49.444Z,31.34
2023-04-15T14:46:18.037Z,31.33
2023-04-15T14:48:46.435Z,31.28
2023-04-15T14:51:14.887Z,31.26
2023-04-15T14:53:43.410Z,31.21
2023-04-15T14:56:11.760Z,31.17
2023-04-15T14:58:40.191Z,31.12
2023-04-15T15:01:08.642Z,31.08
2023-04-15T15:03:41.026Z,31.04
2023-04-15T15:06:09.957Z,31.01
2023-04-15T15:08:38.604Z,30.97
2023-04-15T15:11:07.017Z,30.96
2023-04-15T15:13:35.410Z,30.96
2023-04-15T15:16:03.977Z,30.96
2023-04-15T15:18:32.521Z,30.95
2023-04-15T15:21:00.857Z,30.93
2023-04-15T15:23:29.299Z,30.92
2023-04-15T15:25:58.408Z,30.91
2023-04-15T15:28:26.951Z,30.89
2023-04-15T15:30:55.386Z,30.89
2023-04-15T15:33:24.345Z,30.86
2023-04-15T15:35:52.827Z,30.83
2023-04-15T15:38:21.549Z,30.82
2023-04-15T15:40:49.896Z,30.79
2023-04-15T15:43:18.249Z,30.79
2023-04-15T15:45:46.722Z,30.75
2023-04-15T15:48:15.093Z,30.73
2023-04-15T15:50:43.467Z,30.71
2023-04-15T15:53:13.297Z,30.70
2023-04-15T15:55:41.686Z,30.67
2023-04-15T15:58:10.071Z,30.68
2023-04-15T16:00:38.480Z,30.65
2023-04-15T16:03:07.842Z,30.63
2023-04-15T16:05:37.493Z,30.61
2023-04-15T16:08:06.321Z,30.60
2023-04-15T16:10:34.805Z,30.58
2023-04-15T16:13:03.833Z,30.57
2023-04-15T16:15:32.267Z,30.58
2023-04-15T16:18:00.725Z,30.57
2023-04-15T16:20:32.039Z,30.55
2023-04-15T16:23:00.495Z,30.54
2023-04-15T16:25:28.914Z,30.51
2023-04-15T16:28:01.466Z,30.51
2023-04-15T16:30:40.461Z,30.48
2023-04-15T16:33:09.765Z,30.47
2023-04-15T16:35:38.180Z,30.44
2023-04-15T16:38:07.355Z,30.42
2023-04-15T16:40:35.906Z,30.40
2023-04-15T16:43:05.714Z,30.39
2023-04-15T16:45:34.244Z,30.37
2023-04-15T16:48:02.646Z,30.35
2023-04-15T16:50:31.241Z,30.31
2023-04-15T16:52:59.669Z,30.29
2023-04-15T16:55:28.512Z,30.26
2023-04-15T16:58:02.418Z,30.27
2023-04-15T17:00:33.035Z,30.24
2023-04-15T17:03:05.035Z,30.23
2023-04-15T17:05:33.541Z,30.22
2023-04-15T17:08:02.020Z,30.19
2023-04-15T17:10:31.662Z,30.18
2023-04-15T17:13:00.793Z,30.17
2023-04-15T17:15:29.363Z,30.14
2023-04-15T17:17:57.818Z,30.13
2023-04-15T17:20:27.474Z,30.12
2023-04-15T17:22:55.956Z,30.11
2023-04-15T17:25:24.813Z,30.10
2023-04-15T17:27:53.169Z,30.09
2023-04-15T17:30:23.104Z,30.08
2023-04-15T17:32:53.626Z,30.06
2023-04-15T17:35:22.418Z,30.05
2023-04-15T17:37:50.762Z,30.03
2023-04-15T17:40:19.250Z,30.03
2023-04-15T17:42:48.212Z,30.02
2023-04-15T17:45:16.782Z,30.01
2023-04-15T17:47:45.327Z,29.99
2023-04-15T17:50:13.729Z,29.97
2023-04-15T17:52:42.381Z,29.96
2023-04-15T17:55:10.961Z,29.96
2023-04-15T17:57:39.301Z,29.94
2023-04-15T18:00:11.684Z,29.93
2023-04-15T18:02:40.567Z,29.91
2023-04-15T18:05:10.069Z,29.89
2023-04-15T18:07:38.533Z,29.87
2023-04-15T18:10:11.148Z,29.85
2023-04-15T18:12:39.565Z,29.83
2023-04-15T18:15:10.394Z,29.83
2023-04-15T18:17:38.891Z,29.79
2023-04-15T18:20:08.077Z,29.77
2023-04-15T18:22:36.690Z,29.76
2023-04-15T18:25:05.980Z,29.73
2023-04-15T18:27:35.578Z,29.72
2023-04-15T18:30:03.978Z,29.69
2023-04-15T18:32:33.601Z,29.66
2023-04-15T18:35:02.147Z,29.64
2023-04-15T18:37:30.687Z,29.63
2023-04-15T18:39:59.528Z,29.61
2023-04-15T18:42:27.997Z,29.58
2023-04-15T18:44:56.838Z,29.56
2023-04-15T18:47:27.294Z,29.53
2023-04-15T18:49:55.748Z,29.51
2023-04-15T18:52:24.173Z,29.50
2023-04-15T18:54:52.490Z,29.49
2023-04-15T18:57:25.031Z,29.48
2023-04-15T18:59:59.603Z,29.46
2023-04-15T19:02:28.041Z,29.43
2023-04-15T19:04:56.721Z,29.41
2023-04-15T19:07:25.187Z,29.39
2023-04-15T19:09:54.490Z,29.36
2023-04-15T19:12:22.889Z,29.35
2023-04-15T19:14:51.716Z,29.32
2023-04-15T19:17:20.111Z,29.31
2023-04-15T19:19:48.510Z,29.30
2023-04-15T19:22:17.673Z,29.29
2023-04-15T19:24:46.846Z,29.28
2023-04-15T19:27:15.351Z,29.28
2023-04-15T19:29:43.834Z,29.27
2023-04-15T19:32:12.184Z,29.24
2023-04-15T19:34:40.528Z,29.23
2023-04-15T19:37:08.970Z,29.20
2023-04-15T19:39:37.422Z,29.18
2023-04-15T19:42:05.876Z,29.14
2023-04-15T19:44:34.300Z,29.11
2023-04-15T19:47:02.651Z,29.11
2023-04-15T19:49:32.360Z,29.08
2023-04-15T19:52:00.720Z,29.06
2023-04-15T19:54:29.062Z,29.04
2023-04-15T19:56:57.486Z,29.02
2023-04-15T19:59:25.924Z,29.02
2023-04-15T20:01:54.602Z,29.02
2023-04-15T20:04:23.627Z,29.02
2023-04-15T20:06:51.988Z,29.02
2023-04-15T20:09:20.310Z,29.02
2023-04-15T20:12:48.354Z,29.00
2023-04-15T20:14:37.371Z,28.97
2023-04-15T20:17:05.836Z,28.95
2023-04-15T20:19:34.293Z,28.92
2023-04-15T20:22:02.733Z,28.92
2023-04-15T20:24:31.227Z,28.90
2023-04-15T20:26:59.563Z,28.89
2023-04-15T20:29:28.652Z,28.87
2023-04-15T20:31:57.314Z,28.86
2023-04-15T20:34:25.647Z,28.84
2023-04-15T20:36:53.982Z,28.81
2023-04-15T20:39:22.510Z,28.79
2023-04-15T20:41:51.690Z,28.77
2023-04-15T20:44:20.037Z,28.74
2023-04-15T20:46:48.377Z,28.73
2023-04-15T20:49:16.867Z,28.69
2023-04-15T20:51:45.198Z,28.68
2023-04-15T20:54:13.564Z,28.66
2023-04-15T20:56:42.026Z,28.64
2023-04-15T20:59:10.338Z,28.61
2023-04-15T21:01:38.775Z,28.60
2023-04-15T21:04:07.255Z,28.59
2023-04-15T21:06:36.411Z,28.59
2023-04-15T21:09:05.133Z,28.57
2023-04-15T21:11:53.399Z,28.58
2023-04-15T21:14:22.162Z,28.56
2023-04-15T21:16:50.617Z,28.55
2023-04-15T21:19:18.979Z,28.54
2023-04-15T21:21:47.390Z,28.50
2023-04-15T21:24:15.783Z,28.47
2023-04-15T21:26:44.156Z,28.45
2023-04-15T21:29:12.982Z,28.42
2023-04-15T21:31:41.775Z,28.41
2023-04-15T21:34:10.806Z,28.38
2023-04-15T21:36:39.778Z,28.35
2023-04-15T21:39:08.326Z,28.34
2023-04-15T21:41:40.368Z,28.31
2023-04-15T21:44:08.702Z,28.29
2023-04-15T21:46:37.220Z,28.27
2023-04-15T21:49:08.033Z,28.25
2023-04-15T21:51:36.512Z,28.25
2023-04-15T21:54:04.948Z,28.23
2023-04-15T21:56:33.714Z,28.22
2023-04-15T21:59:02.084Z,28.21
2023-04-15T22:01:30.610Z,28.20
2023-04-15T22:03:59.161Z,28.18
2023-04-15T22:06:27.979Z,28.16
2023-04-15T22:09:11.335Z,28.14
2023-04-15T22:11:41.223Z,28.12
2023-04-15T22:14:10.133Z,28.11
2023-04-15T22:16:38.663Z,28.10
2023-04-15T22:19:07.590Z,28.09
2023-04-15T22:21:36.449Z,28.07
2023-04-15T22:24:38.141Z,28.08
2023-04-15T22:26:53.237Z,28.06
2023-04-15T22:29:22.921Z,28.05
2023-04-15T22:31:51.368Z,28.05
2023-04-15T22:34:22.365Z,28.05
2023-04-15T22:36:52.184Z,28.02
2023-04-15T22:39:22.047Z,28.00
2023-04-15T22:41:51.306Z,27.99
2023-04-15T22:44:19.652Z,27.96
2023-04-15T22:46:48.036Z,27.93
2023-04-15T22:49:16.488Z,27.92
2023-04-15T22:51:45.111Z,27.90
2023-04-15T22:54:13.486Z,27.89
2023-04-15T22:56:41.816Z,27.88
2023-04-15T22:59:10.334Z,27.86
2023-04-15T23:01:39.229Z,27.84
2023-04-15T23:04:09.063Z,27.83
2023-04-15T23:06:38.485Z,27.82
2023-04-15T23:09:07.662Z,27.80
2023-04-15T23:11:36.316Z,27.79
2023-04-15T23:14:04.718Z,27.79
2023-04-15T23:16:33.144Z,27.78
2023-04-15T23:19:01.523Z,27.77
2023-04-15T23:21:30.054Z,27.78
2023-04-15T23:23:58.438Z,27.78
2023-04-15T23:26:28.292Z,27.77
2023-04-15T23:28:57.460Z,27.76
2023-04-15T23:31:25.909Z,27.74
2023-04-15T23:33:54.289Z,27.74
2023-04-15T23:36:22.838Z,27.73
2023-04-15T23:38:51.164Z,27.74
2023-04-15T23:41:19.531Z,27.76
2023-04-15T23:43:47.867Z,27.77
2023-04-15T23:46:16.445Z,27.77
2023-04-15T23:48:44.830Z,27.78
2023-04-15T23:51:13.183Z,27.80
2023-04-15T23:53:41.722Z,27.83
2023-04-15T23:56:10.279Z,27.87
2023-04-15T23:58:38.715Z,27.91
